sensor_id;sensor_type;location;lat;lon;timestamp;pressure;altitude;pressure_sealevel;temperature;humidity
14383;BME280;7275;50.328;8.720;2022-12-16T00:01:09;98907.34;;;2.77;42.64
14383;BME280;7275;50.328;8.720;2022-12-16T00:03:39;98902.94;;;2.78;42.78
14383;BME280;7275;50.328;8.720;2022-12-16T00:06:08;98902.94;;;2.78;42.82
14383;BME280;7275;50.328;8.720;2022-12-16T00:08:37;98899.50;;;2.77;42.81
14383;BME280;7275;50.328;8.720;2022-12-16T00:11:06;98893.41;;;2.77;42.86
14383;BME280;7275;50.328;8.720;2022-12-16T00:13:35;98892.56;;;2.76;42.96
14383;BME280;7275;50.328;8.720;2022-12-16T00:16:03;98903.00;;;2.76;42.85
14383;BME280;7275;50.328;8.720;2022-12-16T00:18:31;98909.94;;;2.76;43.37
14383;BME280;7275;50.328;8.720;2022-12-16T00:21:00;98904.72;;;2.76;43.04
14383;BME280;7275;50.328;8.720;2022-12-16T00:23:28;98910.84;;;2.75;42.83
14383;BME280;7275;50.328;8.720;2022-12-16T00:25:57;98906.50;;;2.74;42.93
14383;BME280;7275;50.328;8.720;2022-12-16T00:28:25;98902.19;;;2.73;42.91
14383;BME280;7275;50.328;8.720;2022-12-16T00:30:53;98915.25;;;2.73;42.97
14383;BME280;7275;50.328;8.720;2022-12-16T00:33:23;98900.47;;;2.72;43.23
14383;BME280;7275;50.328;8.720;2022-12-16T00:35:52;98896.97;;;2.73;43.02
14383;BME280;7275;50.328;8.720;2022-12-16T00:38:22;98899.59;;;2.71;43.26
14383;BME280;7275;50.328;8.720;2022-12-16T00:40:50;98896.16;;;2.71;43.33
14383;BME280;7275;50.328;8.720;2022-12-16T00:43:18;98898.75;;;2.69;43.10
14383;BME280;7275;50.328;8.720;2022-12-16T00:45:46;98894.41;;;2.70;42.96
14383;BME280;7275;50.328;8.720;2022-12-16T00:48:14;98899.66;;;2.68;43.44
14383;BME280;7275;50.328;8.720;2022-12-16T00:50:45;98899.66;;;2.68;42.76
14383;BME280;7275;50.328;8.720;2022-12-16T00:53:12;98890.09;;;2.67;42.98
14383;BME280;7275;50.328;8.720;2022-12-16T00:55:41;98893.63;;;2.66;42.81
14383;BME280;7275;50.328;8.720;2022-12-16T00:58:09;98884.06;;;2.65;43.34
14383;BME280;7275;50.328;8.720;2022-12-16T01:00:36;98882.34;;;2.64;43.18
14383;BME280;7275;50.328;8.720;2022-12-16T01:03:04;98875.41;;;2.63;43.22
14383;BME280;7275;50.328;8.720;2022-12-16T01:05:32;98888.44;;;2.65;43.27
14383;BME280;7275;50.328;8.720;2022-12-16T01:07:59;98891.06;;;2.63;43.01
14383;BME280;7275;50.328;8.720;2022-12-16T01:10:27;98885.84;;;2.63;43.22
14383;BME280;7275;50.328;8.720;2022-12-16T01:12:55;98889.38;;;2.61;43.01
14383;BME280;7275;50.328;8.720;2022-12-16T01:15:23;98887.63;;;2.61;43.29
14383;BME280;7275;50.328;8.720;2022-12-16T01:17:50;98896.28;;;2.63;43.21
14383;BME280;7275;50.328;8.720;2022-12-16T01:20:20;98896.28;;;2.63;43.37
14383;BME280;7275;50.328;8.720;2022-12-16T01:22:48;98903.25;;;2.63;43.36
14383;BME280;7275;50.328;8.720;2022-12-16T01:25:15;98910.19;;;2.64;42.79
14383;BME280;7275;50.328;8.720;2022-12-16T01:27:43;98912.78;;;2.64;43.31
14383;BME280;7275;50.328;8.720;2022-12-16T01:30:12;98914.53;;;2.65;43.38
14383;BME280;7275;50.328;8.720;2022-12-16T01:32:40;98916.22;;;2.66;42.99
14383;BME280;7275;50.328;8.720;2022-12-16T01:35:08;98923.19;;;2.65;43.42
14383;BME280;7275;50.328;8.720;2022-12-16T01:37:55;98922.34;;;2.63;43.02
14383;BME280;7275;50.328;8.720;2022-12-16T01:40:23;98912.75;;;2.65;43.14
14383;BME280;7275;50.328;8.720;2022-12-16T01:42:51;98928.41;;;2.67;43.01
14383;BME280;7275;50.328;8.720;2022-12-16T01:45:29;98925.78;;;2.67;43.63
14383;BME280;7275;50.328;8.720;2022-12-16T01:48:00;98930.09;;;2.68;43.47
14383;BME280;7275;50.328;8.720;2022-12-16T01:50:30;98932.75;;;2.66;43.27
14383;BME280;7275;50.328;8.720;2022-12-16T01:52:59;98936.22;;;2.67;43.61
14383;BME280;7275;50.328;8.720;2022-12-16T01:55:33;98918.81;;;2.67;43.71
14383;BME280;7275;50.328;8.720;2022-12-16T01:58:04;98931.88;;;2.66;43.03
14383;BME280;7275;50.328;8.720;2022-12-16T02:00:36;98931.88;;;2.66;43.42
14383;BME280;7275;50.328;8.720;2022-12-16T02:03:04;98931.00;;;2.65;43.46
14383;BME280;7275;50.328;8.720;2022-12-16T02:05:33;98934.50;;;2.66;43.19
14383;BME280;7275;50.328;8.720;2022-12-16T02:08:09;98919.72;;;2.66;43.43
14383;BME280;7275;50.328;8.720;2022-12-16T02:10:45;98924.94;;;2.66;43.81
14383;BME280;7275;50.328;8.720;2022-12-16T02:13:18;98908.38;;;2.67;43.66
14383;BME280;7275;50.328;8.720;2022-12-16T02:15:58;98941.38;;;2.70;43.80
14383;BME280;7275;50.328;8.720;2022-12-16T02:18:39;98934.44;;;2.69;43.76
14383;BME280;7275;50.328;8.720;2022-12-16T02:21:22;98924.84;;;2.69;43.85
14383;BME280;7275;50.328;8.720;2022-12-16T02:24:18;98911.81;;;2.69;43.74
14383;BME280;7275;50.328;8.720;2022-12-16T02:30:22;98933.63;;;2.65;43.78
14383;BME280;7275;50.328;8.720;2022-12-16T02:32:57;98930.19;;;2.65;43.55
14383;BME280;7275;50.328;8.720;2022-12-16T02:35:34;98924.97;;;2.65;43.95
14383;BME280;7275;50.328;8.720;2022-12-16T02:38:16;98922.28;;;2.68;43.79
14383;BME280;7275;50.328;8.720;2022-12-16T02:40:51;98922.25;;;2.69;43.59
14383;BME280;7275;50.328;8.720;2022-12-16T02:43:33;98930.94;;;2.70;44.45
14383;BME280;7275;50.328;8.720;2022-12-16T02:46:07;98924.84;;;2.69;43.89
14383;BME280;7275;50.328;8.720;2022-12-16T02:48:35;98930.06;;;2.69;43.79
14383;BME280;7275;50.328;8.720;2022-12-16T02:51:02;98927.47;;;2.69;43.65
14383;BME280;7275;50.328;8.720;2022-12-16T02:53:31;98917.03;;;2.69;43.32
14383;BME280;7275;50.328;8.720;2022-12-16T02:56:04;98914.41;;;2.69;43.36
14383;BME280;7275;50.328;8.720;2022-12-16T02:58:40;98919.63;;;2.69;43.78
14383;BME280;7275;50.328;8.720;2022-12-16T03:01:19;98912.72;;;2.68;43.35
14383;BME280;7275;50.328;8.720;2022-12-16T03:03:53;98918.78;;;2.69;43.56
14383;BME280;7275;50.328;8.720;2022-12-16T03:06:24;98922.28;;;2.68;43.92
14383;BME280;7275;50.328;8.720;2022-12-16T03:08:56;98921.44;;;2.66;43.68
14383;BME280;7275;50.328;8.720;2022-12-16T03:11:27;98930.09;;;2.68;44.17
14383;BME280;7275;50.328;8.720;2022-12-16T03:13:56;98933.59;;;2.68;43.64
14383;BME280;7275;50.328;8.720;2022-12-16T03:16:30;98924.88;;;2.68;43.52
14383;BME280;7275;50.328;8.720;2022-12-16T03:19:01;98937.06;;;2.67;43.74
14383;BME280;7275;50.328;8.720;2022-12-16T03:21:31;98937.94;;;2.68;43.79
14383;BME280;7275;50.328;8.720;2022-12-16T03:24:02;98927.53;;;2.66;43.61
14383;BME280;7275;50.328;8.720;2022-12-16T03:26:34;98909.28;;;2.66;43.74
14383;BME280;7275;50.328;8.720;2022-12-16T03:29:07;98929.28;;;2.66;43.74
14383;BME280;7275;50.328;8.720;2022-12-16T03:31:42;98917.13;;;2.65;44.16
14383;BME280;7275;50.328;8.720;2022-12-16T03:34:14;98923.19;;;2.65;44.04
14383;BME280;7275;50.328;8.720;2022-12-16T03:36:48;98930.19;;;2.65;44.20
14383;BME280;7275;50.328;8.720;2022-12-16T03:39:18;98930.19;;;2.65;43.90
14383;BME280;7275;50.328;8.720;2022-12-16T03:41:49;98936.28;;;2.64;44.00
14383;BME280;7275;50.328;8.720;2022-12-16T03:44:20;98927.56;;;2.63;43.40
14383;BME280;7275;50.328;8.720;2022-12-16T03:46:49;98924.13;;;2.61;44.30
14383;BME280;7275;50.328;8.720;2022-12-16T03:49:17;98928.53;;;2.59;44.08
14383;BME280;7275;50.328;8.720;2022-12-16T03:51:45;98938.94;;;2.59;44.12
14383;BME280;7275;50.328;8.720;2022-12-16T03:54:12;98945.91;;;2.60;43.80
14383;BME280;7275;50.328;8.720;2022-12-16T03:56:39;98951.13;;;2.60;44.42
14383;BME280;7275;50.328;8.720;2022-12-16T03:59:07;98958.13;;;2.58;43.51
14383;BME280;7275;50.328;8.720;2022-12-16T04:01:36;98956.38;;;2.57;43.72
14383;BME280;7275;50.328;8.720;2022-12-16T04:04:05;98950.31;;;2.55;43.78
14383;BME280;7275;50.328;8.720;2022-12-16T04:06:33;98948.59;;;2.56;44.32
14383;BME280;7275;50.328;8.720;2022-12-16T04:09:00;98960.75;;;2.55;43.63
14383;BME280;7275;50.328;8.720;2022-12-16T04:11:28;98955.59;;;2.54;43.50
14383;BME280;7275;50.328;8.720;2022-12-16T04:14:13;98966.06;;;2.51;43.98
14383;BME280;7275;50.328;8.720;2022-12-16T04:16:58;98978.28;;;2.47;43.64
14383;BME280;7275;50.328;8.720;2022-12-16T04:19:45;98974.00;;;2.43;43.45
14383;BME280;7275;50.328;8.720;2022-12-16T04:22:33;98984.47;;;2.41;43.91
14383;BME280;7275;50.328;8.720;2022-12-16T04:25:21;98985.38;;;2.39;43.92
14383;BME280;7275;50.328;8.720;2022-12-16T04:27:49;98986.25;;;2.39;43.61
14383;BME280;7275;50.328;8.720;2022-12-16T04:30:18;98986.25;;;2.39;43.64
14383;BME280;7275;50.328;8.720;2022-12-16T04:32:48;98982.75;;;2.40;43.85
14383;BME280;7275;50.328;8.720;2022-12-16T04:35:35;98987.13;;;2.38;44.00
14383;BME280;7275;50.328;8.720;2022-12-16T04:38:20;98992.38;;;2.37;43.83
14383;BME280;7275;50.328;8.720;2022-12-16T04:41:06;98980.19;;;2.36;43.73
14383;BME280;7275;50.328;8.720;2022-12-16T04:43:51;98984.56;;;2.37;44.00
14383;BME280;7275;50.328;8.720;2022-12-16T04:46:36;98983.72;;;2.35;43.89
14383;BME280;7275;50.328;8.720;2022-12-16T04:49:21;98990.63;;;2.36;43.85
14383;BME280;7275;50.328;8.720;2022-12-16T04:52:08;98989.81;;;2.34;43.77
14383;BME280;7275;50.328;8.720;2022-12-16T04:54:53;98993.31;;;2.33;44.05
14383;BME280;7275;50.328;8.720;2022-12-16T04:57:39;98992.44;;;2.32;44.39
14383;BME280;7275;50.328;8.720;2022-12-16T05:00:24;98996.81;;;2.30;43.93
14383;BME280;7275;50.328;8.720;2022-12-16T05:03:09;98989.91;;;2.29;44.15
14383;BME280;7275;50.328;8.720;2022-12-16T05:05:55;98999.44;;;2.30;44.37
14383;BME280;7275;50.328;8.720;2022-12-16T05:08:42;98998.56;;;2.30;44.13
14383;BME280;7275;50.328;8.720;2022-12-16T05:11:27;99008.13;;;2.31;44.60
14383;BME280;7275;50.328;8.720;2022-12-16T05:14:12;99015.94;;;2.31;43.94
14383;BME280;7275;50.328;8.720;2022-12-16T05:16:58;99018.53;;;2.31;44.01
14383;BME280;7275;50.328;8.720;2022-12-16T05:19:43;99015.94;;;2.31;44.41
14383;BME280;7275;50.328;8.720;2022-12-16T05:22:28;99018.50;;;2.32;44.19
14383;BME280;7275;50.328;8.720;2022-12-16T05:25:11;99027.16;;;2.34;44.08
14383;BME280;7275;50.328;8.720;2022-12-16T05:27:56;99029.78;;;2.34;44.26
14383;BME280;7275;50.328;8.720;2022-12-16T05:30:41;99036.72;;;2.34;44.09
14383;BME280;7275;50.328;8.720;2022-12-16T05:33:27;99039.38;;;2.32;44.35
14383;BME280;7275;50.328;8.720;2022-12-16T05:36:12;99040.25;;;2.33;43.95
14383;BME280;7275;50.328;8.720;2022-12-16T05:38:57;99036.75;;;2.32;44.32
14383;BME280;7275;50.328;8.720;2022-12-16T05:41:44;99042.88;;;2.31;44.26
14383;BME280;7275;50.328;8.720;2022-12-16T05:44:29;99055.00;;;2.32;43.90
14383;BME280;7275;50.328;8.720;2022-12-16T05:47:14;99048.94;;;2.32;44.34
14383;BME280;7275;50.328;8.720;2022-12-16T05:49:59;99057.59;;;2.34;44.12
14383;BME280;7275;50.328;8.720;2022-12-16T05:52:48;99071.50;;;2.34;44.33
14383;BME280;7275;50.328;8.720;2022-12-16T05:55:33;99072.34;;;2.36;44.27
14383;BME280;7275;50.328;8.720;2022-12-16T05:58:19;99083.59;;;2.38;44.69
14383;BME280;7275;50.328;8.720;2022-12-16T06:01:05;99089.66;;;2.40;44.66
14383;BME280;7275;50.328;8.720;2022-12-16T06:03:50;99087.00;;;2.42;44.46
14383;BME280;7275;50.328;8.720;2022-12-16T06:06:42;99087.88;;;2.44;44.44
14383;BME280;7275;50.328;8.720;2022-12-16T06:09:27;99080.88;;;2.48;44.22
14383;BME280;7275;50.328;8.720;2022-12-16T06:12:24;99092.16;;;2.48;44.29
14383;BME280;7275;50.328;8.720;2022-12-16T06:15:11;99088.63;;;2.51;44.28
14383;BME280;7275;50.328;8.720;2022-12-16T06:17:56;99099.91;;;2.53;44.11
14383;BME280;7275;50.328;8.720;2022-12-16T06:20:42;99104.22;;;2.55;44.30
14383;BME280;7275;50.328;8.720;2022-12-16T06:23:27;99113.78;;;2.55;44.09
14383;BME280;7275;50.328;8.720;2022-12-16T06:26:12;99116.38;;;2.55;44.56
14383;BME280;7275;50.328;8.720;2022-12-16T06:28:57;99112.94;;;2.54;44.18
14383;BME280;7275;50.328;8.720;2022-12-16T06:31:44;99124.22;;;2.56;44.53
14383;BME280;7275;50.328;8.720;2022-12-16T06:34:29;99121.59;;;2.56;43.95
14383;BME280;7275;50.328;8.720;2022-12-16T06:37:15;99124.22;;;2.56;44.46
14383;BME280;7275;50.328;8.720;2022-12-16T06:40:00;99132.88;;;2.57;43.95
14383;BME280;7275;50.328;8.720;2022-12-16T06:42:45;99139.84;;;2.58;44.43
14383;BME280;7275;50.328;8.720;2022-12-16T06:45:30;99148.50;;;2.60;44.85
14383;BME280;7275;50.328;8.720;2022-12-16T06:48:17;99145.03;;;2.61;44.42
14383;BME280;7275;50.328;8.720;2022-12-16T06:51:02;99153.69;;;2.63;43.82
14383;BME280;7275;50.328;8.720;2022-12-16T06:53:47;99156.25;;;2.64;43.98
14383;BME280;7275;50.328;8.720;2022-12-16T06:56:33;99164.97;;;2.65;44.03
14383;BME280;7275;50.328;8.720;2022-12-16T06:59:18;99169.28;;;2.66;44.21
14383;BME280;7275;50.328;8.720;2022-12-16T07:02:03;99174.50;;;2.66;44.71
14383;BME280;7275;50.328;8.720;2022-12-16T07:04:50;99178.84;;;2.67;44.42
14383;BME280;7275;50.328;8.720;2022-12-16T07:07:35;99180.56;;;2.68;44.20
14383;BME280;7275;50.328;8.720;2022-12-16T07:10:20;99189.25;;;2.68;44.35
14383;BME280;7275;50.328;8.720;2022-12-16T07:13:05;99188.28;;;2.74;44.76
14383;BME280;7275;50.328;8.720;2022-12-16T07:15:51;99193.47;;;2.77;44.13
14383;BME280;7275;50.328;8.720;2022-12-16T07:18:36;99196.06;;;2.78;44.51
14383;BME280;7275;50.328;8.720;2022-12-16T07:21:23;99201.28;;;2.78;44.60
14383;BME280;7275;50.328;8.720;2022-12-16T07:24:08;99205.63;;;2.79;44.11
14383;BME280;7275;50.328;8.720;2022-12-16T07:26:53;99215.16;;;2.80;44.59
14383;BME280;7275;50.328;8.720;2022-12-16T07:29:38;99216.91;;;2.80;44.14
14383;BME280;7275;50.328;8.720;2022-12-16T07:32:24;99223.84;;;2.81;44.23
14383;BME280;7275;50.328;8.720;2022-12-16T07:35:09;99228.16;;;2.82;44.56
14383;BME280;7275;50.328;8.720;2022-12-16T07:38:10;99224.72;;;2.81;44.28
14383;BME280;7275;50.328;8.720;2022-12-16T07:40:55;99235.16;;;2.81;44.35
14383;BME280;7275;50.328;8.720;2022-12-16T07:43:40;99244.66;;;2.84;44.48
14383;BME280;7275;50.328;8.720;2022-12-16T07:46:25;99252.50;;;2.85;44.43
14383;BME280;7275;50.328;8.720;2022-12-16T07:49:21;99250.69;;;2.92;44.88
14383;BME280;7275;50.328;8.720;2022-12-16T07:52:06;99261.78;;;3.06;44.45
14383;BME280;7275;50.328;8.720;2022-12-16T07:54:53;99261.47;;;3.27;44.79
14383;BME280;7275;50.328;8.720;2022-12-16T07:57:38;99265.22;;;3.64;45.38
14383;BME280;7275;50.328;8.720;2022-12-16T08:00:24;99272.28;;;4.08;45.75
14383;BME280;7275;50.328;8.720;2022-12-16T08:03:09;99269.56;;;4.58;46.50
14383;BME280;7275;50.328;8.720;2022-12-16T08:05:54;99270.13;;;5.12;46.86
14383;BME280;7275;50.328;8.720;2022-12-16T08:08:39;99269.47;;;5.76;46.95
14383;BME280;7275;50.328;8.720;2022-12-16T08:11:25;99274.91;;;6.36;46.55
14383;BME280;7275;50.328;8.720;2022-12-16T08:14:11;99275.06;;;6.91;46.04
14383;BME280;7275;50.328;8.720;2022-12-16T08:16:56;99282.19;;;7.45;45.61
14383;BME280;7275;50.328;8.720;2022-12-16T08:19:41;99279.78;;;7.91;45.13
14383;BME280;7275;50.328;8.720;2022-12-16T08:22:27;99287.06;;;8.35;44.87
14383;BME280;7275;50.328;8.720;2022-12-16T08:25:12;99281.97;;;8.78;44.70
14383;BME280;7275;50.328;8.720;2022-12-16T08:27:59;99287.13;;;9.28;44.34
14383;BME280;7275;50.328;8.720;2022-12-16T08:30:48;99287.56;;;9.82;43.99
14383;BME280;7275;50.328;8.720;2022-12-16T08:33:34;99289.78;;;10.34;43.64
14383;BME280;7275;50.328;8.720;2022-12-16T08:36:21;99298.13;;;10.84;43.31
14383;BME280;7275;50.328;8.720;2022-12-16T08:39:06;99304.81;;;11.30;42.88
14383;BME280;7275;50.328;8.720;2022-12-16T08:41:51;99299.16;;;11.75;42.14
14383;BME280;7275;50.328;8.720;2022-12-16T08:44:38;99307.00;;;12.12;41.75
14383;BME280;7275;50.328;8.720;2022-12-16T08:47:23;99315.94;;;12.45;41.55
14383;BME280;7275;50.328;8.720;2022-12-16T08:50:09;99315.66;;;12.84;41.24
14383;BME280;7275;50.328;8.720;2022-12-16T08:52:54;99325.03;;;13.24;40.79
14383;BME280;7275;50.328;8.720;2022-12-16T08:55:39;99325.84;;;13.57;40.17
14383;BME280;7275;50.328;8.720;2022-12-16T08:58:25;99318.66;;;13.90;39.92
14383;BME280;7275;50.328;8.720;2022-12-16T09:01:11;99331.72;;;14.24;39.45
14383;BME280;7275;50.328;8.720;2022-12-16T09:03:57;99329.00;;;14.56;39.40
14383;BME280;7275;50.328;8.720;2022-12-16T09:06:42;99332.88;;;14.94;39.13
14383;BME280;7275;50.328;8.720;2022-12-16T09:09:24;99329.00;;;15.28;38.52
14383;BME280;7275;50.328;8.720;2022-12-16T09:12:08;99334.03;;;15.46;38.13
14383;BME280;7275;50.328;8.720;2022-12-16T09:14:53;99343.63;;;15.63;37.75
14383;BME280;7275;50.328;8.720;2022-12-16T09:17:40;99347.50;;;15.85;37.44
14383;BME280;7275;50.328;8.720;2022-12-16T09:20:25;99346.16;;;16.19;37.52
14383;BME280;7275;50.328;8.720;2022-12-16T09:23:11;99352.63;;;16.56;37.15
14383;BME280;7275;50.328;8.720;2022-12-16T09:25:56;99349.28;;;16.92;36.82
14383;BME280;7275;50.328;8.720;2022-12-16T09:28:42;99343.19;;;17.27;36.50
14383;BME280;7275;50.328;8.720;2022-12-16T09:31:27;99347.56;;;17.66;35.83
14383;BME280;7275;50.328;8.720;2022-12-16T09:34:14;99349.94;;;17.94;35.27
14383;BME280;7275;50.328;8.720;2022-12-16T09:36:59;99353.50;;;18.18;34.86
14383;BME280;7275;50.328;8.720;2022-12-16T09:39:44;99353.38;;;18.20;34.40
14383;BME280;7275;50.328;8.720;2022-12-16T09:42:49;99360.81;;;18.27;34.36
14383;BME280;7275;50.328;8.720;2022-12-16T09:45:43;99345.81;;;18.38;34.11
14383;BME280;7275;50.328;8.720;2022-12-16T09:48:38;99343.63;;;18.43;33.77
14383;BME280;7275;50.328;8.720;2022-12-16T09:51:27;99356.59;;;18.49;33.60
14383;BME280;7275;50.328;8.720;2022-12-16T09:54:15;99353.22;;;18.58;33.33
14383;BME280;7275;50.328;8.720;2022-12-16T09:57:05;99346.13;;;18.80;32.94
14383;BME280;7275;50.328;8.720;2022-12-16T09:59:54;99354.41;;;18.88;32.66
14383;BME280;7275;50.328;8.720;2022-12-16T10:02:41;99350.31;;;18.95;32.83
14383;BME280;7275;50.328;8.720;2022-12-16T10:05:37;99353.50;;;19.11;32.85
14383;BME280;7275;50.328;8.720;2022-12-16T10:08:36;99345.31;;;19.48;32.59
14383;BME280;7275;50.328;8.720;2022-12-16T10:11:32;99354.44;;;19.78;32.15
14383;BME280;7275;50.328;8.720;2022-12-16T10:14:25;99342.81;;;20.00;32.05
14383;BME280;7275;50.328;8.720;2022-12-16T10:17:17;99342.41;;;20.27;31.53
14383;BME280;7275;50.328;8.720;2022-12-16T10:20:11;99352.84;;;20.41;31.35
14383;BME280;7275;50.328;8.720;2022-12-16T10:23:03;99351.97;;;20.51;30.77
14383;BME280;7275;50.328;8.720;2022-12-16T10:25:55;99350.84;;;20.65;31.04
14383;BME280;7275;50.328;8.720;2022-12-16T10:28:45;99349.84;;;20.87;30.48
14383;BME280;7275;50.328;8.720;2022-12-16T10:31:31;99352.19;;;21.01;30.29
14383;BME280;7275;50.328;8.720;2022-12-16T10:34:19;99356.91;;;21.19;30.17
14383;BME280;7275;50.328;8.720;2022-12-16T10:37:04;99359.56;;;21.40;29.77
14383;BME280;7275;50.328;8.720;2022-12-16T10:39:53;99353.88;;;21.64;29.64
14383;BME280;7275;50.328;8.720;2022-12-16T10:42:47;99364.78;;;21.62;29.23
14383;BME280;7275;50.328;8.720;2022-12-16T10:45:37;99372.38;;;21.57;29.03
14383;BME280;7275;50.328;8.720;2022-12-16T10:48:26;99369.91;;;21.65;29.15
14383;BME280;7275;50.328;8.720;2022-12-16T10:51:23;99375.06;;;21.78;29.08
14383;BME280;7275;50.328;8.720;2022-12-16T10:54:22;99370.84;;;21.85;28.81
14383;BME280;7275;50.328;8.720;2022-12-16T10:57:14;99374.59;;;22.03;28.80
14383;BME280;7275;50.328;8.720;2022-12-16T11:00:13;99368.28;;;22.23;28.34
14383;BME280;7275;50.328;8.720;2022-12-16T11:03:17;99368.00;;;22.36;28.21
14383;BME280;7275;50.328;8.720;2022-12-16T11:06:04;99370.84;;;22.53;28.15
14383;BME280;7275;50.328;8.720;2022-12-16T11:08:49;99380.00;;;22.71;28.13
14383;BME280;7275;50.328;8.720;2022-12-16T11:11:34;99375.47;;;22.81;27.95
14383;BME280;7275;50.328;8.720;2022-12-16T11:14:22;99365.81;;;22.98;27.72
14383;BME280;7275;50.328;8.720;2022-12-16T11:17:29;99370.47;;;23.05;27.29
14383;BME280;7275;50.328;8.720;2022-12-16T11:20:16;99366.75;;;23.16;27.45
14383;BME280;7275;50.328;8.720;2022-12-16T11:23:13;99376.97;;;23.22;27.44
14383;BME280;7275;50.328;8.720;2022-12-16T11:26:05;99372.97;;;23.26;26.96
14383;BME280;7275;50.328;8.720;2022-12-16T11:29:05;99384.34;;;23.30;26.56
14383;BME280;7275;50.328;8.720;2022-12-16T11:31:56;99379.53;;;23.33;26.68
14383;BME280;7275;50.328;8.720;2022-12-16T11:34:49;99380.63;;;23.50;26.84
14383;BME280;7275;50.328;8.720;2022-12-16T11:37:37;99373.47;;;23.68;26.67
14383;BME280;7275;50.328;8.720;2022-12-16T11:40:24;99380.09;;;23.83;26.50
14383;BME280;7275;50.328;8.720;2022-12-16T11:43:12;99374.78;;;23.91;25.96
14383;BME280;7275;50.328;8.720;2022-12-16T11:46:02;99377.38;;;23.93;25.78
14383;BME280;7275;50.328;8.720;2022-12-16T11:48:51;99381.19;;;23.90;25.78
14383;BME280;7275;50.328;8.720;2022-12-16T11:51:52;99380.75;;;24.04;25.73
14383;BME280;7275;50.328;8.720;2022-12-16T11:55:03;99383.69;;;24.38;25.59
14383;BME280;7275;50.328;8.720;2022-12-16T11:58:15;99379.03;;;24.75;25.77
14383;BME280;7275;50.328;8.720;2022-12-16T12:01:09;99384.25;;;25.12;25.49
14383;BME280;7275;50.328;8.720;2022-12-16T12:03:56;99384.53;;;25.44;24.96
14383;BME280;7275;50.328;8.720;2022-12-16T12:06:56;99384.41;;;25.54;24.87
14383;BME280;7275;50.328;8.720;2022-12-16T12:09:52;99389.47;;;25.49;24.89
14383;BME280;7275;50.328;8.720;2022-12-16T12:12:42;99387.63;;;25.49;24.83
14383;BME280;7275;50.328;8.720;2022-12-16T12:15:35;99392.19;;;25.49;24.51
14383;BME280;7275;50.328;8.720;2022-12-16T12:18:28;99399.44;;;25.48;24.51
14383;BME280;7275;50.328;8.720;2022-12-16T12:21:23;99399.44;;;25.48;24.66
14383;BME280;7275;50.328;8.720;2022-12-16T12:24:18;99400.13;;;25.50;24.33
14383;BME280;7275;50.328;8.720;2022-12-16T12:27:14;99406.72;;;25.48;24.43
14383;BME280;7275;50.328;8.720;2022-12-16T12:30:03;99406.34;;;25.43;24.17
14383;BME280;7275;50.328;8.720;2022-12-16T12:32:59;99417.88;;;25.45;24.18
14383;BME280;7275;50.328;8.720;2022-12-16T12:35:55;99417.00;;;25.44;24.08
14383;BME280;7275;50.328;8.720;2022-12-16T12:38:51;99416.06;;;25.35;24.07
14383;BME280;7275;50.328;8.720;2022-12-16T12:41:54;99424.34;;;25.34;24.12
14383;BME280;7275;50.328;8.720;2022-12-16T12:44:52;99428.22;;;25.31;24.05
14383;BME280;7275;50.328;8.720;2022-12-16T12:47:43;99429.38;;;25.29;23.79
14383;BME280;7275;50.328;8.720;2022-12-16T12:50:36;99438.59;;;25.18;23.76
14383;BME280;7275;50.328;8.720;2022-12-16T12:53:31;99433.72;;;25.04;23.70
14383;BME280;7275;50.328;8.720;2022-12-16T12:56:26;99435.22;;;24.99;23.84
14383;BME280;7275;50.328;8.720;2022-12-16T12:59:21;99435.50;;;24.96;23.84
14383;BME280;7275;50.328;8.720;2022-12-16T13:02:13;99439.81;;;24.89;23.83
14383;BME280;7275;50.328;8.720;2022-12-16T13:05:00;99435.59;;;24.86;23.53
14383;BME280;7275;50.328;8.720;2022-12-16T13:07:51;99444.25;;;24.90;23.64
14383;BME280;7275;50.328;8.720;2022-12-16T13:10:36;99439.13;;;24.87;23.35
14383;BME280;7275;50.328;8.720;2022-12-16T13:13:30;99444.31;;;24.80;23.32
14383;BME280;7275;50.328;8.720;2022-12-16T13:19:52;99447.06;;;24.43;23.64
14383;BME280;7275;50.328;8.720;2022-12-16T13:22:40;99452.09;;;24.38;23.46
14383;BME280;7275;50.328;8.720;2022-12-16T13:25:39;99452.53;;;24.34;23.60
14383;BME280;7275;50.328;8.720;2022-12-16T13:28:27;99448.63;;;24.19;23.22
14383;BME280;7275;50.328;8.720;2022-12-16T13:31:13;99461.31;;;24.09;23.39
14383;BME280;7275;50.328;8.720;2022-12-16T13:34:04;99456.22;;;23.96;23.23
14383;BME280;7275;50.328;8.720;2022-12-16T13:36:56;99467.34;;;23.74;23.31
14383;BME280;7275;50.328;8.720;2022-12-16T13:40:02;99460.72;;;23.49;23.63
14383;BME280;7275;50.328;8.720;2022-12-16T13:42:51;99472.53;;;23.29;23.70
14383;BME280;7275;50.328;8.720;2022-12-16T13:45:39;99480.59;;;23.10;23.79
14383;BME280;7275;50.328;8.720;2022-12-16T13:48:37;99480.31;;;22.94;23.62
14383;BME280;7275;50.328;8.720;2022-12-16T13:54:50;99482.44;;;22.81;23.50
14383;BME280;7275;50.328;8.720;2022-12-16T13:57:40;99497.28;;;22.66;23.82
14383;BME280;7275;50.328;8.720;2022-12-16T14:00:27;99502.16;;;22.51;23.45
14383;BME280;7275;50.328;8.720;2022-12-16T14:03:17;99507.91;;;22.27;23.82
14383;BME280;7275;50.328;8.720;2022-12-16T14:08:50;99523.06;;;21.78;23.74
14383;BME280;7275;50.328;8.720;2022-12-16T14:11:43;99528.31;;;21.59;23.80
14383;BME280;7275;50.328;8.720;2022-12-16T14:14:31;99526.78;;;21.45;24.40
14383;BME280;7275;50.328;8.720;2022-12-16T14:17:21;99536.38;;;21.38;24.28
14383;BME280;7275;50.328;8.720;2022-12-16T14:20:14;99535.94;;;21.22;24.06
14383;BME280;7275;50.328;8.720;2022-12-16T14:23:04;99545.53;;;21.04;24.11
14383;BME280;7275;50.328;8.720;2022-12-16T14:26:15;99546.78;;;20.78;24.29
14383;BME280;7275;50.328;8.720;2022-12-16T14:29:03;99549.25;;;20.47;24.17
14383;BME280;7275;50.328;8.720;2022-12-16T14:31:59;99551.31;;;20.11;24.41
14383;BME280;7275;50.328;8.720;2022-12-16T14:35:00;99556.56;;;19.66;24.51
14383;BME280;7275;50.328;8.720;2022-12-16T14:37:45;99563.00;;;19.29;24.74
14383;BME280;7275;50.328;8.720;2022-12-16T14:40:31;99566.69;;;18.92;24.84
14383;BME280;7275;50.328;8.720;2022-12-16T14:43:18;99566.81;;;18.54;24.84
14383;BME280;7275;50.328;8.720;2022-12-16T14:46:06;99577.28;;;18.07;24.98
14383;BME280;7275;50.328;8.720;2022-12-16T14:49:01;99580.50;;;17.47;25.17
14383;BME280;7275;50.328;8.720;2022-12-16T14:51:47;99580.63;;;16.93;25.26
14383;BME280;7275;50.328;8.720;2022-12-16T14:54:35;99588.97;;;16.32;25.42
14383;BME280;7275;50.328;8.720;2022-12-16T14:57:21;99598.69;;;15.61;25.46